sensor_id;sensor_type;location;lat;lon;timestamp;temperature;humidity
58554;DHT22;48119;53.218;6.576;2022-12-18T00:05:59;2.90;97.00
58554;DHT22;48119;53.218;6.576;2022-12-18T00:08:32;2.90;97.40
58554;DHT22;48119;53.218;6.576;2022-12-18T00:18:07;3.00;97.60
58554;DHT22;48119;53.218;6.576;2022-12-18T00:24:57;2.90;97.40
58554;DHT22;48119;53.218;6.576;2022-12-18T00:27:28;2.80;97.20
58554;DHT22;48119;53.218;6.576;2022-12-18T00:29:57;2.80;97.50
58554;DHT22;48119;53.218;6.576;2022-12-18T00:32:36;2.80;97.30
58554;DHT22;48119;53.218;6.576;2022-12-18T00:35:05;2.80;97.40
58554;DHT22;48119;53.218;6.576;2022-12-18T00:37:33;2.80;97.30
58554;DHT22;48119;53.218;6.576;2022-12-18T00:40:01;2.80;97.40
58554;DHT22;48119;53.218;6.576;2022-12-18T00:42:39;2.80;97.00
58554;DHT22;48119;53.218;6.576;2022-12-18T00:49:10;2.70;96.70
58554;DHT22;48119;53.218;6.576;2022-12-18T00:51:50;2.80;96.90
58554;DHT22;48119;53.218;6.576;2022-12-18T00:54:21;2.80;96.90
58554;DHT22;48119;53.218;6.576;2022-12-18T00:56:55;2.70;96.80
58554;DHT22;48119;53.218;6.576;2022-12-18T00:59:53;2.70;96.70
58554;DHT22;48119;53.218;6.576;2022-12-18T01:06:18;2.70;96.50
58554;DHT22;48119;53.218;6.576;2022-12-18T01:09:24;2.70;96.70
58554;DHT22;48119;53.218;6.576;2022-12-18T01:11:53;2.70;96.90
58554;DHT22;48119;53.218;6.576;2022-12-18T01:14:27;2.70;97.00
58554;DHT22;48119;53.218;6.576;2022-12-18T01:16:55;2.70;97.00
58554;DHT22;48119;53.218;6.576;2022-12-18T01:19:58;2.70;96.70
58554;DHT22;48119;53.218;6.576;2022-12-18T01:26:23;2.60;96.40
58554;DHT22;48119;53.218;6.576;2022-12-18T01:51:02;2.50;96.80
58554;DHT22;48119;53.218;6.576;2022-12-18T01:53:31;2.40;96.80
58554;DHT22;48119;53.218;6.576;2022-12-18T01:55:58;2.40;97.00
58554;DHT22;48119;53.218;6.576;2022-12-18T01:58:32;2.40;96.60
58554;DHT22;48119;53.218;6.576;2022-12-18T02:01:03;2.40;96.40
58554;DHT22;48119;53.218;6.576;2022-12-18T02:03:32;2.40;96.30
58554;DHT22;48119;53.218;6.576;2022-12-18T02:06:19;2.50;96.30
58554;DHT22;48119;53.218;6.576;2022-12-18T02:09:07;2.40;96.10
58554;DHT22;48119;53.218;6.576;2022-12-18T02:12:04;2.40;96.20
58554;DHT22;48119;53.218;6.576;2022-12-18T02:18:19;2.40;96.00
58554;DHT22;48119;53.218;6.576;2022-12-18T02:21:00;2.30;95.90
58554;DHT22;48119;53.218;6.576;2022-12-18T02:23:50;2.30;96.10
58554;DHT22;48119;53.218;6.576;2022-12-18T02:26:37;2.30;96.10
58554;DHT22;48119;53.218;6.576;2022-12-18T02:29:52;2.30;96.10
58554;DHT22;48119;53.218;6.576;2022-12-18T02:32:28;2.30;96.00
58554;DHT22;48119;53.218;6.576;2022-12-18T02:35:01;2.20;95.90
58554;DHT22;48119;53.218;6.576;2022-12-18T02:37:29;2.20;95.90
58554;DHT22;48119;53.218;6.576;2022-12-18T02:40:19;2.20;95.90
58554;DHT22;48119;53.218;6.576;2022-12-18T02:42:56;2.20;95.90
58554;DHT22;48119;53.218;6.576;2022-12-18T02:45:58;2.20;96.10
58554;DHT22;48119;53.218;6.576;2022-12-18T02:48:42;2.20;96.10
58554;DHT22;48119;53.218;6.576;2022-12-18T02:51:20;2.20;96.00
58554;DHT22;48119;53.218;6.576;2022-12-18T02:53:58;2.10;95.90
58554;DHT22;48119;53.218;6.576;2022-12-18T02:56:53;2.00;95.90
58554;DHT22;48119;53.218;6.576;2022-12-18T02:59:38;2.20;96.00
58554;DHT22;48119;53.218;6.576;2022-12-18T03:02:20;2.10;95.90
58554;DHT22;48119;53.218;6.576;2022-12-18T03:04:57;2.10;96.00
58554;DHT22;48119;53.218;6.576;2022-12-18T03:07:56;2.10;96.00
58554;DHT22;48119;53.218;6.576;2022-12-18T03:10:29;2.10;95.60
58554;DHT22;48119;53.218;6.576;2022-12-18T03:13:16;2.10;96.10
58554;DHT22;48119;53.218;6.576;2022-12-18T03:15:53;2.10;96.00
58554;DHT22;48119;53.218;6.576;2022-12-18T03:18:58;2.10;96.00
58554;DHT22;48119;53.218;6.576;2022-12-18T03:21:40;2.10;96.10
58554;DHT22;48119;53.218;6.576;2022-12-18T03:24:10;2.10;96.20
58554;DHT22;48119;53.218;6.576;2022-12-18T03:26:40;2.10;96.00
58554;DHT22;48119;53.218;6.576;2022-12-18T03:29:12;2.10;96.00
58554;DHT22;48119;53.218;6.576;2022-12-18T03:31:48;2.10;96.00
58554;DHT22;48119;53.218;6.576;2022-12-18T03:34:22;2.00;96.00
58554;DHT22;48119;53.218;6.576;2022-12-18T03:36:51;2.00;96.10
58554;DHT22;48119;53.218;6.576;2022-12-18T03:39:25;2.00;96.00
58554;DHT22;48119;53.218;6.576;2022-12-18T03:41:59;2.00;95.90
58554;DHT22;48119;53.218;6.576;2022-12-18T03:47:17;2.00;95.70
58554;DHT22;48119;53.218;6.576;2022-12-18T03:50:02;2.00;95.60
58554;DHT22;48119;53.218;6.576;2022-12-18T03:53:05;2.00;95.60
58554;DHT22;48119;53.218;6.576;2022-12-18T03:55:33;2.00;95.60
58554;DHT22;48119;53.218;6.576;2022-12-18T03:58:04;2.00;95.70
58554;DHT22;48119;53.218;6.576;2022-12-18T04:00:35;1.90;95.50
58554;DHT22;48119;53.218;6.576;2022-12-18T04:03:09;2.00;95.50
58554;DHT22;48119;53.218;6.576;2022-12-18T04:05:39;2.00;95.70
58554;DHT22;48119;53.218;6.576;2022-12-18T04:08:09;1.90;95.60
58554;DHT22;48119;53.218;6.576;2022-12-18T04:10:36;2.00;95.60
58554;DHT22;48119;53.218;6.576;2022-12-18T04:13:02;2.00;95.60
58554;DHT22;48119;53.218;6.576;2022-12-18T04:15:34;1.90;95.40
58554;DHT22;48119;53.218;6.576;2022-12-18T04:18:10;2.00;95.50
58554;DHT22;48119;53.218;6.576;2022-12-18T04:20:38;1.90;95.20
58554;DHT22;48119;53.218;6.576;2022-12-18T04:23:04;1.90;95.30
58554;DHT22;48119;53.218;6.576;2022-12-18T04:25:34;1.80;95.20
58554;DHT22;48119;53.218;6.576;2022-12-18T04:28:02;1.80;95.20
58554;DHT22;48119;53.218;6.576;2022-12-18T04:30:28;1.80;95.20
58554;DHT22;48119;53.218;6.576;2022-12-18T04:32:58;1.90;95.20
58554;DHT22;48119;53.218;6.576;2022-12-18T04:35:26;1.90;95.30
58554;DHT22;48119;53.218;6.576;2022-12-18T04:37:57;1.80;95.10
58554;DHT22;48119;53.218;6.576;2022-12-18T04:40:32;1.90;95.10
58554;DHT22;48119;53.218;6.576;2022-12-18T04:43:11;2.00;95.10
58554;DHT22;48119;53.218;6.576;2022-12-18T04:45:52;1.90;95.00
58554;DHT22;48119;53.218;6.576;2022-12-18T04:48:23;1.90;94.90
58554;DHT22;48119;53.218;6.576;2022-12-18T04:50:51;1.80;94.80
58554;DHT22;48119;53.218;6.576;2022-12-18T04:53:20;1.80;94.90
58554;DHT22;48119;53.218;6.576;2022-12-18T04:55:50;1.70;94.80
58554;DHT22;48119;53.218;6.576;2022-12-18T04:58:26;1.80;94.80
58554;DHT22;48119;53.218;6.576;2022-12-18T05:00:52;1.80;94.80
58554;DHT22;48119;53.218;6.576;2022-12-18T05:03:18;1.80;94.80
58554;DHT22;48119;53.218;6.576;2022-12-18T05:05:44;1.80;94.70
58554;DHT22;48119;53.218;6.576;2022-12-18T05:08:10;1.80;94.70
58554;DHT22;48119;53.218;6.576;2022-12-18T05:10:36;1.70;94.70
58554;DHT22;48119;53.218;6.576;2022-12-18T05:13:04;1.70;94.60
58554;DHT22;48119;53.218;6.576;2022-12-18T05:15:39;1.80;94.60
58554;DHT22;48119;53.218;6.576;2022-12-18T05:18:12;1.70;94.50
58554;DHT22;48119;53.218;6.576;2022-12-18T05:20:54;1.70;94.60
58554;DHT22;48119;53.218;6.576;2022-12-18T05:23:33;1.80;94.50
58554;DHT22;48119;53.218;6.576;2022-12-18T05:26:04;1.70;94.50
58554;DHT22;48119;53.218;6.576;2022-12-18T05:28:41;1.70;94.60
58554;DHT22;48119;53.218;6.576;2022-12-18T05:31:27;1.70;94.50
58554;DHT22;48119;53.218;6.576;2022-12-18T05:33:55;1.70;94.40
58554;DHT22;48119;53.218;6.576;2022-12-18T05:36:38;1.70;94.40
58554;DHT22;48119;53.218;6.576;2022-12-18T05:39:04;1.70;94.30
58554;DHT22;48119;53.218;6.576;2022-12-18T05:41:33;1.70;94.30
58554;DHT22;48119;53.218;6.576;2022-12-18T05:44:01;1.70;94.20
58554;DHT22;48119;53.218;6.576;2022-12-18T05:46:39;1.70;94.20
58554;DHT22;48119;53.218;6.576;2022-12-18T05:49:14;1.70;94.10
58554;DHT22;48119;53.218;6.576;2022-12-18T05:51:47;1.70;94.10
58554;DHT22;48119;53.218;6.576;2022-12-18T05:54:29;1.70;94.10
58554;DHT22;48119;53.218;6.576;2022-12-18T05:56:58;1.70;94.10
58554;DHT22;48119;53.218;6.576;2022-12-18T05:59:34;1.60;94.30
58554;DHT22;48119;53.218;6.576;2022-12-18T06:02:08;1.60;94.00
58554;DHT22;48119;53.218;6.576;2022-12-18T06:04:33;1.60;94.10
58554;DHT22;48119;53.218;6.576;2022-12-18T06:06:59;1.60;94.20
58554;DHT22;48119;53.218;6.576;2022-12-18T06:09:25;1.60;94.00
58554;DHT22;48119;53.218;6.576;2022-12-18T06:11:54;1.60;94.40
58554;DHT22;48119;53.218;6.576;2022-12-18T06:14:22;1.60;94.20
58554;DHT22;48119;53.218;6.576;2022-12-18T06:16:56;1.60;94.50
58554;DHT22;48119;53.218;6.576;2022-12-18T06:19:27;1.60;94.20
58554;DHT22;48119;53.218;6.576;2022-12-18T06:21:53;1.60;94.00
58554;DHT22;48119;53.218;6.576;2022-12-18T06:24:29;1.60;94.00
58554;DHT22;48119;53.218;6.576;2022-12-18T06:27:01;1.60;94.00
58554;DHT22;48119;53.218;6.576;2022-12-18T06:29:36;1.60;94.00
58554;DHT22;48119;53.218;6.576;2022-12-18T06:32:11;1.50;93.90
58554;DHT22;48119;53.218;6.576;2022-12-18T06:34:39;1.60;93.90
58554;DHT22;48119;53.218;6.576;2022-12-18T06:37:08;1.60;94.10
58554;DHT22;48119;53.218;6.576;2022-12-18T06:39:34;1.50;93.70
58554;DHT22;48119;53.218;6.576;2022-12-18T06:42:06;1.50;93.40
58554;DHT22;48119;53.218;6.576;2022-12-18T06:44:34;1.40;93.30
58554;DHT22;48119;53.218;6.576;2022-12-18T06:47:02;1.40;93.40
58554;DHT22;48119;53.218;6.576;2022-12-18T06:49:36;1.40;93.30
58554;DHT22;48119;53.218;6.576;2022-12-18T06:52:13;1.40;93.30
58554;DHT22;48119;53.218;6.576;2022-12-18T06:54:41;1.40;93.40
58554;DHT22;48119;53.218;6.576;2022-12-18T06:57:14;1.40;93.30
58554;DHT22;48119;53.218;6.576;2022-12-18T06:59:46;1.40;93.50
58554;DHT22;48119;53.218;6.576;2022-12-18T07:02:12;1.40;93.60
58554;DHT22;48119;53.218;6.576;2022-12-18T07:04:40;1.40;93.50
58554;DHT22;48119;53.218;6.576;2022-12-18T07:07:11;1.40;93.20
58554;DHT22;48119;53.218;6.576;2022-12-18T07:09:37;1.40;93.20
58554;DHT22;48119;53.218;6.576;2022-12-18T07:12:06;1.40;93.30
58554;DHT22;48119;53.218;6.576;2022-12-18T07:19:42;1.40;93.30
58554;DHT22;48119;53.218;6.576;2022-12-18T07:22:14;1.40;93.30
58554;DHT22;48119;53.218;6.576;2022-12-18T07:24:54;1.50;93.40
58554;DHT22;48119;53.218;6.576;2022-12-18T07:27:23;1.40;93.30
58554;DHT22;48119;53.218;6.576;2022-12-18T07:30:00;1.50;93.70
58554;DHT22;48119;53.218;6.576;2022-12-18T07:32:45;1.50;93.30
58554;DHT22;48119;53.218;6.576;2022-12-18T07:35:13;1.40;93.00
58554;DHT22;48119;53.218;6.576;2022-12-18T07:37:55;1.40;93.10
58554;DHT22;48119;53.218;6.576;2022-12-18T07:40:24;1.40;93.00
58554;DHT22;48119;53.218;6.576;2022-12-18T07:43:00;1.40;93.10
58554;DHT22;48119;53.218;6.576;2022-12-18T07:45:45;1.40;93.00
58554;DHT22;48119;53.218;6.576;2022-12-18T07:48:21;1.40;93.00
58554;DHT22;48119;53.218;6.576;2022-12-18T07:50:52;1.30;93.10
58554;DHT22;48119;53.218;6.576;2022-12-18T07:53:30;1.30;93.10
58554;DHT22;48119;53.218;6.576;2022-12-18T07:56:00;1.30;93.10
58554;DHT22;48119;53.218;6.576;2022-12-18T07:58:30;1.30;93.10
58554;DHT22;48119;53.218;6.576;2022-12-18T08:01:05;1.30;93.00
58554;DHT22;48119;53.218;6.576;2022-12-18T08:03:35;1.30;93.00
58554;DHT22;48119;53.218;6.576;2022-12-18T08:06:13;1.40;93.00
58554;DHT22;48119;53.218;6.576;2022-12-18T08:08:39;1.40;92.90
58554;DHT22;48119;53.218;6.576;2022-12-18T08:11:28;1.40;92.90
58554;DHT22;48119;53.218;6.576;2022-12-18T08:14:03;1.40;92.90
58554;DHT22;48119;53.218;6.576;2022-12-18T08:16:32;1.40;92.90
58554;DHT22;48119;53.218;6.576;2022-12-18T08:18:58;1.30;92.80
58554;DHT22;48119;53.218;6.576;2022-12-18T08:21:28;1.40;92.80
58554;DHT22;48119;53.218;6.576;2022-12-18T08:24:09;1.40;92.80
58554;DHT22;48119;53.218;6.576;2022-12-18T08:26:48;1.40;92.80
58554;DHT22;48119;53.218;6.576;2022-12-18T08:29:20;1.30;92.70
58554;DHT22;48119;53.218;6.576;2022-12-18T08:32:08;1.40;92.70
58554;DHT22;48119;53.218;6.576;2022-12-18T08:34:43;1.30;92.60
58554;DHT22;48119;53.218;6.576;2022-12-18T08:37:22;1.30;92.50
58554;DHT22;48119;53.218;6.576;2022-12-18T08:39:51;1.20;92.40
58554;DHT22;48119;53.218;6.576;2022-12-18T08:42:19;1.00;92.30
58554;DHT22;48119;53.218;6.576;2022-12-18T08:45:27;1.00;92.40
58554;DHT22;48119;53.218;6.576;2022-12-18T08:48:01;0.90;92.30
58554;DHT22;48119;53.218;6.576;2022-12-18T08:50:43;0.90;92.50
58554;DHT22;48119;53.218;6.576;2022-12-18T08:53:17;0.90;92.50
58554;DHT22;48119;53.218;6.576;2022-12-18T08:55:52;0.90;92.50
58554;DHT22;48119;53.218;6.576;2022-12-18T08:58:23;0.90;92.60
58554;DHT22;48119;53.218;6.576;2022-12-18T09:00:52;0.90;92.60
58554;DHT22;48119;53.218;6.576;2022-12-18T09:03:23;0.90;92.80
58554;DHT22;48119;53.218;6.576;2022-12-18T09:06:02;0.90;92.60
58554;DHT22;48119;53.218;6.576;2022-12-18T09:08:41;0.90;92.60
58554;DHT22;48119;53.218;6.576;2022-12-18T09:11:34;1.00;92.70
58554;DHT22;48119;53.218;6.576;2022-12-18T09:14:02;1.00;92.70
58554;DHT22;48119;53.218;6.576;2022-12-18T09:16:31;1.00;92.70
58554;DHT22;48119;53.218;6.576;2022-12-18T09:19:06;1.00;92.70
58554;DHT22;48119;53.218;6.576;2022-12-18T09:21:34;0.90;92.70
58554;DHT22;48119;53.218;6.576;2022-12-18T09:24:00;1.00;92.80
58554;DHT22;48119;53.218;6.576;2022-12-18T09:26:30;0.90;92.80
58554;DHT22;48119;53.218;6.576;2022-12-18T09:29:08;1.00;92.80
58554;DHT22;48119;53.218;6.576;2022-12-18T09:31:47;1.00;92.80
58554;DHT22;48119;53.218;6.576;2022-12-18T09:34:33;0.90;92.80
58554;DHT22;48119;53.218;6.576;2022-12-18T09:37:02;1.00;92.80
58554;DHT22;48119;53.218;6.576;2022-12-18T09:39:34;1.10;92.90
58554;DHT22;48119;53.218;6.576;2022-12-18T09:42:20;1.00;92.90
58554;DHT22;48119;53.218;6.576;2022-12-18T09:44:55;1.00;92.90
58554;DHT22;48119;53.218;6.576;2022-12-18T09:47:39;1.10;93.00
58554;DHT22;48119;53.218;6.576;2022-12-18T09:53:09;1.10;93.00
58554;DHT22;48119;53.218;6.576;2022-12-18T09:55:43;1.10;93.00
58554;DHT22;48119;53.218;6.576;2022-12-18T09:58:45;1.20;93.10
58554;DHT22;48119;53.218;6.576;2022-12-18T10:01:28;1.20;93.20
58554;DHT22;48119;53.218;6.576;2022-12-18T10:04:08;1.20;93.20
58554;DHT22;48119;53.218;6.576;2022-12-18T10:07:00;1.20;93.20
58554;DHT22;48119;53.218;6.576;2022-12-18T10:09:52;1.30;93.10
58554;DHT22;48119;53.218;6.576;2022-12-18T10:12:46;1.30;93.20
58554;DHT22;48119;53.218;6.576;2022-12-18T10:15:50;1.30;93.30
58554;DHT22;48119;53.218;6.576;2022-12-18T10:21:26;1.30;93.30
58554;DHT22;48119;53.218;6.576;2022-12-18T10:30:23;1.40;93.30
58554;DHT22;48119;53.218;6.576;2022-12-18T10:33:14;1.40;93.50
58554;DHT22;48119;53.218;6.576;2022-12-18T10:36:06;1.50;93.50
58554;DHT22;48119;53.218;6.576;2022-12-18T10:39:34;1.50;93.60
58554;DHT22;48119;53.218;6.576;2022-12-18T10:42:17;1.50;93.60
58554;DHT22;48119;53.218;6.576;2022-12-18T10:45:07;1.40;93.50
58554;DHT22;48119;53.218;6.576;2022-12-18T10:50:40;1.40;93.60
58554;DHT22;48119;53.218;6.576;2022-12-18T10:53:30;1.50;93.60
58554;DHT22;48119;53.218;6.576;2022-12-18T10:56:18;1.50;93.60
58554;DHT22;48119;53.218;6.576;2022-12-18T10:59:03;1.60;93.60
58554;DHT22;48119;53.218;6.576;2022-12-18T11:04:24;1.60;93.60
58554;DHT22;48119;53.218;6.576;2022-12-18T11:07:08;1.60;93.60
58554;DHT22;48119;53.218;6.576;2022-12-18T11:09:35;1.60;93.60
58554;DHT22;48119;53.218;6.576;2022-12-18T11:12:04;1.70;93.60
58554;DHT22;48119;53.218;6.576;2022-12-18T11:14:51;1.70;93.60
58554;DHT22;48119;53.218;6.576;2022-12-18T11:17:33;1.70;93.60
58554;DHT22;48119;53.218;6.576;2022-12-18T11:23:02;1.90;93.50
58554;DHT22;48119;53.218;6.576;2022-12-18T11:25:36;1.90;93.40
58554;DHT22;48119;53.218;6.576;2022-12-18T11:31:23;1.90;93.50
58554;DHT22;48119;53.218;6.576;2022-12-18T11:36:46;1.90;93.60
58554;DHT22;48119;53.218;6.576;2022-12-18T11:39:34;1.90;93.60
58554;DHT22;48119;53.218;6.576;2022-12-18T11:45:26;2.00;93.90
58554;DHT22;48119;53.218;6.576;2022-12-18T11:48:49;2.00;93.70
58554;DHT22;48119;53.218;6.576;2022-12-18T11:51:19;2.10;93.70
58554;DHT22;48119;53.218;6.576;2022-12-18T11:54:17;2.10;93.60
58554;DHT22;48119;53.218;6.576;2022-12-18T11:57:14;2.10;93.60
58554;DHT22;48119;53.218;6.576;2022-12-18T12:00:13;2.10;93.60
58554;DHT22;48119;53.218;6.576;2022-12-18T12:03:20;2.10;93.70
58554;DHT22;48119;53.218;6.576;2022-12-18T12:39:01;2.30;93.90
58554;DHT22;48119;53.218;6.576;2022-12-18T12:48:58;2.30;93.60
58554;DHT22;48119;53.218;6.576;2022-12-18T12:51:34;2.30;93.70
58554;DHT22;48119;53.218;6.576;2022-12-18T12:54:08;2.30;93.70
58554;DHT22;48119;53.218;6.576;2022-12-18T13:00:00;2.30;93.50
58554;DHT22;48119;53.218;6.576;2022-12-18T13:02:42;2.40;93.40
58554;DHT22;48119;53.218;6.576;2022-12-18T13:08:28;2.50;93.30
58554;DHT22;48119;53.218;6.576;2022-12-18T13:11:27;2.50;93.20
58554;DHT22;48119;53.218;6.576;2022-12-18T13:14:35;2.50;93.00
58554;DHT22;48119;53.218;6.576;2022-12-18T13:17:30;2.50;93.00
58554;DHT22;48119;53.218;6.576;2022-12-18T13:26:45;2.60;92.80
58554;DHT22;48119;53.218;6.576;2022-12-18T13:29:47;2.60;92.70
58554;DHT22;48119;53.218;6.576;2022-12-18T13:32:24;2.70;92.50
58554;DHT22;48119;53.218;6.576;2022-12-18T13:38:18;2.70;92.40
58554;DHT22;48119;53.218;6.576;2022-12-18T13:40:54;2.70;92.40
58554;DHT22;48119;53.218;6.576;2022-12-18T13:46:45;2.80;92.20
58554;DHT22;48119;53.218;6.576;2022-12-18T13:56:55;2.70;92.20
58554;DHT22;48119;53.218;6.576;2022-12-18T14:03:42;2.70;92.10
58554;DHT22;48119;53.218;6.576;2022-12-18T14:06:31;2.80;92.30
58554;DHT22;48119;53.218;6.576;2022-12-18T14:13:03;2.80;92.30
58554;DHT22;48119;53.218;6.576;2022-12-18T14:15:53;2.80;92.30
58554;DHT22;48119;53.218;6.576;2022-12-18T14:19:03;2.90;92.40
58554;DHT22;48119;53.218;6.576;2022-12-18T14:21:54;2.90;92.30
58554;DHT22;48119;53.218;6.576;2022-12-18T14:24:29;2.90;92.30
58554;DHT22;48119;53.218;6.576;2022-12-18T14:30:32;3.00;92.40
58554;DHT22;48119;53.218;6.576;2022-12-18T14:33:11;2.90;92.40
58554;DHT22;48119;53.218;6.576;2022-12-18T14:38:56;2.90;92.20
58554;DHT22;48119;53.218;6.576;2022-12-18T14:41:37;2.90;92.30
58554;DHT22;48119;53.218;6.576;2022-12-18T14:44:14;2.90;92.50
58554;DHT22;48119;53.218;6.576;2022-12-18T14:46:55;2.90;92.10
58554;DHT22;48119;53.218;6.576;2022-12-18T14:49:42;2.80;92.10
58554;DHT22;48119;53.218;6.576;2022-12-18T14:52:29;2.90;92.10
58554;DHT22;48119;53.218;6.576;2022-12-18T14:55:16;2.90;91.90
58554;DHT22;48119;53.218;6.576;2022-12-18T14:57:45;2.90;92.10
58554;DHT22;48119;53.218;6.576;2022-12-18T15:00:19;2.90;92.00
58554;DHT22;48119;53.218;6.576;2022-12-18T15:03:06;2.90;92.00
58554;DHT22;48119;53.218;6.576;2022-12-18T15:05:35;2.90;91.90
58554;DHT22;48119;53.218;6.576;2022-12-18T15:08:29;2.90;91.80
58554;DHT22;48119;53.218;6.576;2022-12-18T15:11:24;3.00;92.00
58554;DHT22;48119;53.218;6.576;2022-12-18T15:14:23;2.90;92.10
58554;DHT22;48119;53.218;6.576;2022-12-18T15:17:14;2.90;92.00
58554;DHT22;48119;53.218;6.576;2022-12-18T15:20:03;2.80;92.10
58554;DHT22;48119;53.218;6.576;2022-12-18T15:22:42;2.90;92.50
58554;DHT22;48119;53.218;6.576;2022-12-18T15:25:29;2.90;92.10
58554;DHT22;48119;53.218;6.576;2022-12-18T15:28:00;2.90;92.10
58554;DHT22;48119;53.218;6.576;2022-12-18T15:31:05;2.90;92.10
58554;DHT22;48119;53.218;6.576;2022-12-18T15:33:44;2.80;92.00
58554;DHT22;48119;53.218;6.576;2022-12-18T15:36:23;2.70;92.00
58554;DHT22;48119;53.218;6.576;2022-12-18T15:38:50;2.70;92.10
58554;DHT22;48119;53.218;6.576;2022-12-18T15:41:28;2.80;92.10
58554;DHT22;48119;53.218;6.576;2022-12-18T15:44:14;2.70;92.20
58554;DHT22;48119;53.218;6.576;2022-12-18T15:46:54;2.80;92.20
58554;DHT22;48119;53.218;6.576;2022-12-18T15:49:52;2.80;92.20
58554;DHT22;48119;53.218;6.576;2022-12-18T15:52:29;2.70;92.20
58554;DHT22;48119;53.218;6.576;2022-12-18T15:55:19;2.70;92.30
58554;DHT22;48119;53.218;6.576;2022-12-18T15:58:12;2.60;92.20
58554;DHT22;48119;53.218;6.576;2022-12-18T16:00:55;2.60;92.40
58554;DHT22;48119;53.218;6.576;2022-12-18T16:03:29;2.60;92.50
58554;DHT22;48119;53.218;6.576;2022-12-18T16:06:05;2.60;92.50
58554;DHT22;48119;53.218;6.576;2022-12-18T16:11:31;2.70;92.60
58554;DHT22;48119;53.218;6.576;2022-12-18T16:14:27;2.70;92.60
58554;DHT22;48119;53.218;6.576;2022-12-18T16:17:02;2.60;92.60
58554;DHT22;48119;53.218;6.576;2022-12-18T16:19:38;2.60;92.60
58554;DHT22;48119;53.218;6.576;2022-12-18T16:22:20;2.70;92.70
58554;DHT22;48119;53.218;6.576;2022-12-18T16:24:53;2.70;92.60
58554;DHT22;48119;53.218;6.576;2022-12-18T16:27:25;2.70;92.60
58554;DHT22;48119;53.218;6.576;2022-12-18T16:29:58;2.70;92.60
58554;DHT22;48119;53.218;6.576;2022-12-18T16:32:32;2.70;92.60
58554;DHT22;48119;53.218;6.576;2022-12-18T16:35:00;2.70;92.70
58554;DHT22;48119;53.218;6.576;2022-12-18T16:37:33;2.70;92.70
58554;DHT22;48119;53.218;6.576;2022-12-18T16:40:02;2.70;92.80
58554;DHT22;48119;53.218;6.576;2022-12-18T16:42:32;2.70;92.80
58554;DHT22;48119;53.218;6.576;2022-12-18T16:45:00;2.70;92.90
58554;DHT22;48119;53.218;6.576;2022-12-18T16:47:40;2.70;93.20
58554;DHT22;48119;53.218;6.576;2022-12-18T16:50:07;2.70;93.00
58554;DHT22;48119;53.218;6.576;2022-12-18T16:52:41;2.70;92.90
58554;DHT22;48119;53.218;6.576;2022-12-18T16:55:15;2.70;93.00
58554;DHT22;48119;53.218;6.576;2022-12-18T16:57:41;2.70;93.00
58554;DHT22;48119;53.218;6.576;2022-12-18T17:00:09;2.70;93.00
58554;DHT22;48119;53.218;6.576;2022-12-18T17:02:46;2.80;93.00
58554;DHT22;48119;53.218;6.576;2022-12-18T17:05:13;2.80;93.00
58554;DHT22;48119;53.218;6.576;2022-12-18T17:07:46;2.70;93.10
58554;DHT22;48119;53.218;6.576;2022-12-18T17:10:15;2.70;93.10
58554;DHT22;48119;53.218;6.576;2022-12-18T17:16:34;2.70;93.20
58554;DHT22;48119;53.218;6.576;2022-12-18T17:19:06;2.60;93.40
58554;DHT22;48119;53.218;6.576;2022-12-18T17:21:38;2.60;93.50
58554;DHT22;48119;53.218;6.576;2022-12-18T17:24:11;2.60;93.50
58554;DHT22;48119;53.218;6.576;2022-12-18T17:26:37;2.70;93.50
58554;DHT22;48119;53.218;6.576;2022-12-18T17:29:13;2.80;93.60
58554;DHT22;48119;53.218;6.576;2022-12-18T17:31:49;2.70;93.50
58554;DHT22;48119;53.218;6.576;2022-12-18T17:34:15;2.70;93.60
58554;DHT22;48119;53.218;6.576;2022-12-18T17:37:01;2.70;93.50
58554;DHT22;48119;53.218;6.576;2022-12-18T17:39:30;2.70;93.50
58554;DHT22;48119;53.218;6.576;2022-12-18T17:42:10;2.70;93.50
58554;DHT22;48119;53.218;6.576;2022-12-18T17:44:48;2.60;93.50
58554;DHT22;48119;53.218;6.576;2022-12-18T17:47:30;2.70;93.50
58554;DHT22;48119;53.218;6.576;2022-12-18T17:50:06;2.60;93.50
58554;DHT22;48119;53.218;6.576;2022-12-18T17:53:07;2.70;93.50
58554;DHT22;48119;53.218;6.576;2022-12-18T17:55:46;2.60;93.50
58554;DHT22;48119;53.218;6.576;2022-12-18T18:01:22;2.60;93.50
58554;DHT22;48119;53.218;6.576;2022-12-18T18:04:02;2.60;93.50
58554;DHT22;48119;53.218;6.576;2022-12-18T18:09:20;2.60;93.40
58554;DHT22;48119;53.218;6.576;2022-12-18T18:12:12;2.70;93.40
58554;DHT22;48119;53.218;6.576;2022-12-18T18:15:01;2.70;93.40
58554;DHT22;48119;53.218;6.576;2022-12-18T18:17:27;2.70;93.40
58554;DHT22;48119;53.218;6.576;2022-12-18T18:20:02;2.70;93.40
58554;DHT22;48119;53.218;6.576;2022-12-18T18:22:38;2.70;93.40
58554;DHT22;48119;53.218;6.576;2022-12-18T18:25:07;2.80;93.40
58554;DHT22;48119;53.218;6.576;2022-12-18T18:28:05;2.80;93.40
58554;DHT22;48119;53.218;6.576;2022-12-18T18:30:41;2.80;93.30
58554;DHT22;48119;53.218;6.576;2022-12-18T18:33:12;2.80;93.30
58554;DHT22;48119;53.218;6.576;2022-12-18T18:36:04;2.80;93.30
58554;DHT22;48119;53.218;6.576;2022-12-18T18:38:44;2.90;93.40
58554;DHT22;48119;53.218;6.576;2022-12-18T18:41:18;2.90;93.30
58554;DHT22;48119;53.218;6.576;2022-12-18T18:43:54;2.90;93.30
58554;DHT22;48119;53.218;6.576;2022-12-18T18:46:33;2.90;93.30
58554;DHT22;48119;53.218;6.576;2022-12-18T18:48:59;2.90;93.30
58554;DHT22;48119;53.218;6.576;2022-12-18T18:51:42;2.80;93.30
58554;DHT22;48119;53.218;6.576;2022-12-18T19:01:23;2.90;93.40
58554;DHT22;48119;53.218;6.576;2022-12-18T19:03:56;2.90;93.50
58554;DHT22;48119;53.218;6.576;2022-12-18T19:09:27;2.90;93.40
58554;DHT22;48119;53.218;6.576;2022-12-18T19:15:54;2.90;93.30
58554;DHT22;48119;53.218;6.576;2022-12-18T19:18:27;2.90;93.30
58554;DHT22;48119;53.218;6.576;2022-12-18T19:21:37;2.90;93.30
58554;DHT22;48119;53.218;6.576;2022-12-18T19:24:06;2.90;93.20
58554;DHT22;48119;53.218;6.576;2022-12-18T19:26:34;2.90;93.10
58554;DHT22;48119;53.218;6.576;2022-12-18T19:29:08;3.00;93.10
58554;DHT22;48119;53.218;6.576;2022-12-18T19:31:58;3.00;93.10
58554;DHT22;48119;53.218;6.576;2022-12-18T19:34:55;3.00;93.00
58554;DHT22;48119;53.218;6.576;2022-12-18T19:37:31;3.00;93.00
58554;DHT22;48119;53.218;6.576;2022-12-18T19:40:46;3.10;92.90
58554;DHT22;48119;53.218;6.576;2022-12-18T19:43:15;3.10;92.80
58554;DHT22;48119;53.218;6.576;2022-12-18T19:45:45;3.20;92.90
58554;DHT22;48119;53.218;6.576;2022-12-18T19:48:19;3.20;92.70
58554;DHT22;48119;53.218;6.576;2022-12-18T19:50:51;3.20;92.70
58554;DHT22;48119;53.218;6.576;2022-12-18T19:53:29;3.30;92.70
58554;DHT22;48119;53.218;6.576;2022-12-18T19:56:21;3.30;92.60
58554;DHT22;48119;53.218;6.576;2022-12-18T19:59:10;3.30;92.50
58554;DHT22;48119;53.218;6.576;2022-12-18T20:01:54;3.40;92.50
58554;DHT22;48119;53.218;6.576;2022-12-18T20:04:23;3.40;92.50
58554;DHT22;48119;53.218;6.576;2022-12-18T20:06:53;3.50;92.70
58554;DHT22;48119;53.218;6.576;2022-12-18T20:09:38;3.40;92.60
58554;DHT22;48119;53.218;6.576;2022-12-18T20:12:06;3.50;92.60